Quincy, West Virginia
Current Conditions -  °F | °C
As of 2:54 PM on Monday 24 Nov 2014 (Local Time) from KCRW Reporting Station
Broken Clouds Broken Clouds  
Wind Chill: 69°   Ceiling: 7500
Heat Index: 69°   Visibility: 10mi
Dew Point: 42°   Wind: 12mph
Humidity: 38%   Direction: 270°W
Pressure: 29.59"   Gusts: 20mph
Location:  38.2384°N, 81.4817°W
Report Text: KCRW 241954Z 27010G17KT 230V290 10SM BKN075 21/06 A2959 RMK AO2 PK WND 25036/1910 PRESRR SLP011 T02060056 $
Loading
Personal Weather Stations






























Interactive Weather Map New forecast layout! Learn more

10-Day Weather Forecast

Advertisements
Track Severe Weather on mobile